Terminal Aerodrome Forecast
Issued by NWS

Home | Current Version | Previous Version | Text Only | Print | Product List | Glossary On
Versions: 1 2 3 4 5 6 7 8 9 10 11 12 13 14 15 16 17 18 19 20
630
FTUS46 KMTR 070657 CCA
TAFSJC
TAF COR
KSJC 070657Z 0707/0806 31005KT P6SM FEW025 SCT030 BKN250
      TEMPO 0707/0709 BKN025 OVC030
     FM071500 14004KT P6SM SCT200
     FM072200 11008KT P6SM VCSH OVC150
     FM080400 14012KT P6SM VCSH OVC080=

USA.gov is the U.S. government's official web portal to all federal, state and local government web resources and services.